Time;durP1;ratioP1;P1;durP2;ratioP2;P2;SDS_P1;SDS_P2;PMS_P1;PMS_P2;Temp;Humidity;BMP_temperature;BMP_pressure;BME280_temperature;BME280_humidity;BME280_pressure;Samples;Min_cycle;Max_cycle;Signal;HPM_P1;HPM_P2
2023/04/23 00:00:31;;;;;;;12.35;6.30;;;;;;;7.34;77.15;99429.63;4965567;28;20073;-93
2023/04/23 00:02:57;;;;;;;8.73;6.07;;;;;;;7.35;77.25;99447.31;4965784;28;20030;-91
2023/04/23 00:05:25;;;;;;;9.10;6.00;;;;;;;7.25;77.42;99438.06;4949250;28;20485;-92
2023/04/23 00:07:51;;;;;;;9.73;5.70;;;;;;;7.23;77.23;99431.34;4949495;28;20066;-92
2023/04/23 00:10:16;;;;;;;6.78;5.07;;;;;;;7.32;77.02;99448.59;4951976;28;20062;-94
2023/04/23 00:12:42;;;;;;;5.68;5.05;;;;;;;7.12;77.27;99421.50;4965578;28;20577;-93
2023/04/23 00:15:08;;;;;;;6.32;4.88;;;;;;;7.12;78.03;99440.25;4964485;28;20512;-93
2023/04/23 00:17:34;;;;;;;10.38;5.90;;;;;;;7.08;77.74;99438.06;4964407;28;20039;-93
2023/04/23 00:19:59;;;;;;;9.10;5.55;;;;;;;7.09;78.02;99438.88;4965984;28;20050;-93
2023/04/23 00:22:25;;;;;;;9.75;6.22;;;;;;;7.18;77.79;99441.94;4965701;28;20563;-94
2023/04/23 00:24:50;;;;;;;9.00;6.55;;;;;;;7.12;77.76;99437.56;4965425;28;20038;-92
2023/04/23 00:27:17;;;;;;;11.85;6.15;;;;;;;7.10;77.61;99429.81;4965295;28;20099;-93
2023/04/23 00:29:42;;;;;;;9.90;5.40;;;;;;;7.05;77.80;99425.16;4965917;28;20042;-93
2023/04/23 00:32:08;;;;;;;8.40;6.10;;;;;;;7.04;77.55;99422.75;4966348;28;20038;-92
2023/04/23 00:34:33;;;;;;;9.13;5.50;;;;;;;7.00;77.56;99421.63;4964191;28;20038;-92
2023/04/23 00:36:59;;;;;;;10.98;5.70;;;;;;;7.06;77.44;99426.78;4965338;28;20047;-93
2023/04/23 00:39:24;;;;;;;11.75;5.32;;;;;;;7.07;77.08;99431.09;4964607;28;20043;-94
2023/04/23 00:41:50;;;;;;;7.60;5.05;;;;;;;7.02;77.20;99425.66;4964640;28;20038;-93
2023/04/23 00:44:15;;;;;;;8.52;5.60;;;;;;;7.12;77.14;99429.53;4964315;28;20049;-94
2023/04/23 00:46:41;;;;;;;9.32;5.10;;;;;;;7.03;77.03;99426.47;4965152;28;20039;-94
2023/04/23 00:49:06;;;;;;;7.43;5.22;;;;;;;6.83;76.63;99421.63;4965480;28;20069;-93
2023/04/23 00:51:32;;;;;;;7.35;4.55;;;;;;;6.84;76.86;99432.06;4965443;28;20105;-93
2023/04/23 00:53:57;;;;;;;7.95;5.47;;;;;;;6.74;76.87;99429.19;4964501;28;20042;-93
2023/04/23 00:56:23;;;;;;;11.00;5.35;;;;;;;6.83;76.89;99451.06;4965003;28;20038;-93
2023/04/23 00:58:50;;;;;;;9.48;5.57;;;;;;;6.78;77.54;99443.72;4965704;28;20038;-93
2023/04/23 01:01:19;;;;;;;14.00;4.88;;;;;;;6.76;77.51;99439.66;4964382;28;20031;-93
2023/04/23 01:03:45;;;;;;;6.70;5.03;;;;;;;6.78;76.92;99430.34;4965553;28;20062;-93
2023/04/23 01:06:10;;;;;;;9.60;5.13;;;;;;;6.85;77.18;99439.03;4964548;28;20034;-93
2023/04/23 01:08:36;;;;;;;8.63;4.95;;;;;;;6.97;77.07;99435.47;4965278;28;20038;-93
2023/04/23 01:11:01;;;;;;;8.63;5.43;;;;;;;7.00;76.40;99435.81;4964959;28;20031;-92
2023/04/23 01:13:28;;;;;;;8.88;5.38;;;;;;;6.97;77.13;99451.53;4964940;28;20107;-92
2023/04/23 01:15:54;;;;;;;9.05;4.88;;;;;;;7.03;76.37;99437.16;4967902;28;20035;-92
2023/04/23 01:18:20;;;;;;;7.50;5.50;;;;;;;7.09;76.37;99428.97;4966063;28;20043;-94
2023/04/23 01:20:45;;;;;;;7.97;5.53;;;;;;;7.19;75.88;99432.88;4964810;28;20035;-93
2023/04/23 01:23:11;;;;;;;9.18;5.45;;;;;;;7.09;75.80;99438.88;4964069;28;20045;-93
2023/04/23 01:25:37;;;;;;;12.73;5.57;;;;;;;6.95;75.95;99427.69;4964508;28;20097;-93
2023/04/23 01:28:03;;;;;;;8.88;5.45;;;;;;;6.81;76.32;99427.19;4964449;28;20105;-93
2023/04/23 01:30:29;;;;;;;10.45;6.05;;;;;;;6.87;76.34;99441.50;4964714;28;20035;-93
2023/04/23 01:32:55;;;;;;;20.52;6.97;;;;;;;6.90;76.13;99438.31;4965010;28;20039;-93
2023/04/23 01:35:20;;;;;;;8.73;5.80;;;;;;;6.78;75.85;99435.69;4963450;28;20042;-93
2023/04/23 01:37:46;;;;;;;13.20;6.68;;;;;;;6.71;76.57;99436.91;4950464;29;20050;-94
2023/04/23 01:40:11;;;;;;;11.02;6.18;;;;;;;6.61;76.74;99445.56;4928706;29;20501;-94
2023/04/23 01:42:37;;;;;;;11.35;6.03;;;;;;;6.64;76.80;99432.53;4928965;29;20102;-92
2023/04/23 01:45:03;;;;;;;12.02;6.30;;;;;;;6.86;76.24;99437.16;4928481;29;20035;-94
2023/04/23 01:47:29;;;;;;;10.52;5.97;;;;;;;6.92;76.31;99433.53;4928180;29;20038;-92
2023/04/23 01:49:54;;;;;;;10.20;5.82;;;;;;;7.01;75.84;99442.75;4928477;29;20065;-93
2023/04/23 01:52:20;;;;;;;9.55;6.68;;;;;;;6.95;75.86;99430.38;4928701;29;20054;-93
2023/04/23 01:54:45;;;;;;;9.95;6.22;;;;;;;7.04;75.24;99436.13;4928633;29;20070;-92
2023/04/23 01:57:11;;;;;;;14.48;6.72;;;;;;;7.15;75.34;99453.97;4929879;29;20107;-93
2023/04/23 01:59:36;;;;;;;12.50;6.65;;;;;;;6.87;75.15;99433.47;4928802;29;20031;-92
2023/04/23 02:02:02;;;;;;;10.65;5.75;;;;;;;6.91;75.07;99439.13;4928261;29;20039;-93
2023/04/23 02:04:28;;;;;;;7.50;6.10;;;;;;;7.00;75.03;99453.72;4928492;29;20043;-93
2023/04/23 02:06:53;;;;;;;8.73;5.88;;;;;;;6.98;75.23;99450.50;4932940;28;20034;-92
2023/04/23 02:09:18;;;;;;;11.25;6.18;;;;;;;6.98;74.86;99461.19;4946121;28;20429;-93
2023/04/23 02:11:44;;;;;;;13.80;6.57;;;;;;;6.90;75.08;99448.22;4946975;28;20563;-93
2023/04/23 02:14:09;;;;;;;11.02;5.78;;;;;;;7.03;74.89;99458.59;4948847;29;20031;-94
2023/04/23 02:16:35;;;;;;;9.45;6.22;;;;;;;7.08;75.06;99454.13;4928571;29;20039;-93
2023/04/23 02:19:00;;;;;;;8.45;5.57;;;;;;;7.00;74.35;99443.84;4926589;29;20042;-93
2023/04/23 02:21:26;;;;;;;10.45;5.75;;;;;;;6.99;74.84;99454.78;4927261;29;20043;-92
2023/04/23 02:23:52;;;;;;;7.07;4.78;;;;;;;6.88;74.93;99454.59;4928240;29;20028;-93
2023/04/23 02:26:17;;;;;;;8.45;5.35;;;;;;;6.82;75.21;99458.25;4912686;29;20067;-93
2023/04/23 02:28:43;;;;;;;8.15;5.70;;;;;;;6.73;75.54;99448.19;4927699;29;20031;-93
2023/04/23 02:31:09;;;;;;;6.63;5.00;;;;;;;6.56;75.47;99440.94;4928259;29;20042;-92
2023/04/23 02:33:34;;;;;;;9.43;5.40;;;;;;;6.51;75.88;99454.22;4912519;29;20042;-92
2023/04/23 02:36:00;;;;;;;8.27;5.43;;;;;;;6.45;75.56;99444.47;4912022;29;20043;-93
2023/04/23 02:38:25;;;;;;;8.43;5.78;;;;;;;6.33;75.86;99452.56;4927710;29;20027;-93
2023/04/23 02:40:51;;;;;;;11.43;6.00;;;;;;;6.23;75.61;99434.47;4927777;29;20050;-93
2023/04/23 02:43:17;;;;;;;7.65;5.57;;;;;;;6.15;75.22;99448.19;4912259;29;20043;-93
2023/04/23 02:45:43;;;;;;;8.23;5.57;;;;;;;6.04;75.55;99441.84;4913335;29;20035;-93
2023/04/23 02:48:09;;;;;;;10.57;6.07;;;;;;;6.10;76.33;99461.47;4930437;29;20059;-93
2023/04/23 02:50:37;;;;;;;10.70;6.68;;;;;;;6.08;76.36;99458.22;4928500;29;20043;-94
2023/04/23 02:53:03;;;;;;;13.73;6.25;;;;;;;5.95;76.87;99453.94;4924968;29;20082;-94
2023/04/23 02:55:30;;;;;;;9.35;6.00;;;;;;;5.86;77.15;99455.34;4927614;29;20043;-93
2023/04/23 02:57:57;;;;;;;9.50;5.93;;;;;;;5.90;77.40;99453.00;4927178;29;20028;-94
2023/04/23 03:00:23;;;;;;;9.30;6.35;;;;;;;5.88;77.29;99447.91;4928620;29;20046;-93
2023/04/23 03:02:48;;;;;;;10.57;5.68;;;;;;;5.81;76.96;99448.03;4911868;29;20067;-93
2023/04/23 03:05:14;;;;;;;9.40;5.47;;;;;;;5.91;77.13;99457.28;4927276;29;20026;-92
2023/04/23 03:07:39;;;;;;;16.10;6.13;;;;;;;5.77;77.31;99449.56;4927177;29;20027;-93
2023/04/23 03:10:05;;;;;;;8.00;5.93;;;;;;;5.72;77.33;99452.09;4953472;28;20054;-93
2023/04/23 03:12:31;;;;;;;9.05;5.40;;;;;;;5.70;77.56;99443.50;4962729;28;20038;-94
2023/04/23 03:14:56;;;;;;;12.70;6.88;;;;;;;5.77;77.01;99462.91;4962226;28;20035;-94
2023/04/23 03:17:22;;;;;;;9.45;5.50;;;;;;;5.67;76.12;99446.66;4963067;28;20038;-93
2023/04/23 03:19:47;;;;;;;7.28;5.32;;;;;;;5.70;77.02;99480.09;4938254;28;20031;-94
2023/04/23 03:22:13;;;;;;;7.85;5.72;;;;;;;5.59;77.15;99474.53;4945963;28;20106;-92
2023/04/23 03:24:38;;;;;;;9.48;5.45;;;;;;;5.51;77.38;99471.41;4930893;29;20074;-93
2023/04/23 03:27:04;;;;;;;11.25;5.72;;;;;;;5.42;77.20;99460.25;4930579;29;20027;-92
2023/04/23 03:29:29;;;;;;;12.02;5.50;;;;;;;5.36;78.07;99461.19;4932382;29;20042;-92
2023/04/23 03:31:55;;;;;;;9.07;6.22;;;;;;;5.34;77.66;99463.28;4932367;29;20038;-91
2023/04/23 03:34:22;;;;;;;8.73;5.43;;;;;;;5.40;77.27;99476.50;4931932;29;20398;-92
2023/04/23 03:36:48;;;;;;;8.13;5.35;;;;;;;5.39;78.18;99476.72;4931300;29;20118;-92
2023/04/23 03:39:14;;;;;;;10.63;5.53;;;;;;;5.32;78.24;99468.84;4946989;28;20019;-92
2023/04/23 03:41:40;;;;;;;10.32;5.30;;;;;;;5.39;78.25;99480.22;4946589;28;20037;-93
2023/04/23 03:44:05;;;;;;;10.02;5.63;;;;;;;5.31;77.60;99472.53;4929706;29;20422;-92
2023/04/23 03:46:31;;;;;;;9.00;5.10;;;;;;;5.30;77.33;99480.81;4930379;29;20037;-93
2023/04/23 03:48:56;;;;;;;7.07;4.80;;;;;;;5.34;76.90;99484.63;4947535;29;20035;-92
2023/04/23 03:51:21;;;;;;;8.95;5.10;;;;;;;5.23;76.99;99480.91;4947393;29;20050;-92
2023/04/23 03:53:48;;;;;;;8.32;5.13;;;;;;;5.29;77.24;99489.84;4929734;29;20039;-92
2023/04/23 03:56:15;;;;;;;8.48;5.22;;;;;;;5.23;77.95;99492.41;4930240;29;20545;-91
2023/04/23 03:58:40;;;;;;;10.05;5.85;;;;;;;5.39;77.00;99503.44;4931252;29;20522;-93
2023/04/23 04:01:06;;;;;;;6.63;4.85;;;;;;;5.35;77.43;99500.41;4946412;29;20086;-92
2023/04/23 04:03:31;;;;;;;8.38;5.15;;;;;;;5.26;77.41;99485.78;4928999;29;20062;-92
2023/04/23 04:05:57;;;;;;;12.52;5.05;;;;;;;5.29;77.51;99495.97;4945943;29;20136;-92
2023/04/23 04:08:22;;;;;;;6.65;5.53;;;;;;;5.31;78.00;99495.75;4932010;28;20098;-92
2023/04/23 04:10:48;;;;;;;19.95;5.32;;;;;;;5.30;77.60;99497.63;4950391;28;20054;-92
2023/04/23 04:13:14;;;;;;;10.45;6.28;;;;;;;5.23;77.80;99480.91;4965285;28;20038;-92
2023/04/23 04:15:40;;;;;;;9.88;6.10;;;;;;;5.35;77.89;99504.94;4950324;28;20046;-93
2023/04/23 04:18:05;;;;;;;8.82;6.05;;;;;;;5.36;77.46;99506.56;4934619;28;20034;-92
2023/04/23 04:20:31;;;;;;;11.35;6.78;;;;;;;5.38;77.87;99505.28;4950825;28;20035;-92
2023/04/23 04:22:56;;;;;;;11.55;6.35;;;;;;;5.39;77.71;99511.44;4966568;28;20042;-91
2023/04/23 04:25:22;;;;;;;9.68;6.63;;;;;;;5.37;77.70;99495.66;4950793;28;20043;-93
2023/04/23 04:27:48;;;;;;;10.68;6.03;;;;;;;5.45;77.33;99495.31;4949957;28;20047;-93
2023/04/23 04:30:14;;;;;;;11.27;6.45;;;;;;;5.61;77.25;99501.00;4935492;28;20054;-92
2023/04/23 04:32:41;;;;;;;13.07;6.32;;;;;;;5.64;77.07;99492.53;4968234;28;20050;-92
2023/04/23 04:35:07;;;;;;;9.43;6.30;;;;;;;5.73;76.53;99496.47;4968807;28;20568;-92
2023/04/23 04:37:34;;;;;;;18.63;6.68;;;;;;;5.83;76.31;99506.56;4970372;28;20046;-93
2023/04/23 04:40:00;;;;;;;15.32;7.22;;;;;;;5.85;76.16;99510.66;4969501;28;20060;-93
2023/04/23 04:42:26;;;;;;;12.10;7.38;;;;;;;5.89;76.60;99510.97;4951875;28;20038;-92
2023/04/23 04:44:51;;;;;;;15.07;6.78;;;;;;;5.91;76.25;99500.06;4969671;28;20034;-92
2023/04/23 04:47:18;;;;;;;14.88;7.20;;;;;;;6.07;75.57;99513.53;4967997;28;20034;-93
2023/04/23 04:49:43;;;;;;;14.07;7.93;;;;;;;6.18;75.32;99513.75;4951128;28;20093;-93
2023/04/23 04:52:09;;;;;;;19.77;7.80;;;;;;;6.23;75.37;99506.66;4967826;28;20121;-92
2023/04/23 04:54:35;;;;;;;13.57;7.53;;;;;;;6.25;75.36;99506.41;4968547;28;20034;-92
2023/04/23 04:57:01;;;;;;;14.68;8.30;;;;;;;6.44;75.23;99518.56;4952603;28;20413;-92
2023/04/23 04:59:26;;;;;;;14.90;8.27;;;;;;;6.46;74.91;99511.13;4952241;28;20479;-92
2023/04/23 05:01:52;;;;;;;15.48;8.40;;;;;;;6.62;74.93;99514.91;4966940;28;20117;-92
2023/04/23 05:04:17;;;;;;;14.10;8.63;;;;;;;6.51;74.91;99507.72;4952040;28;20512;-92
2023/04/23 05:06:43;;;;;;;17.77;8.60;;;;;;;6.63;74.61;99503.13;4968919;28;20034;-92
2023/04/23 05:09:09;;;;;;;17.73;8.75;;;;;;;6.78;75.07;99507.94;4950752;28;20116;-92
2023/04/23 05:11:35;;;;;;;15.70;8.73;;;;;;;6.99;74.16;99524.38;4953991;28;20034;-92
2023/04/23 05:14:00;;;;;;;20.40;8.75;;;;;;;7.14;73.79;99510.44;5014323;23;20030;-93
2023/04/23 05:16:26;;;;;;;12.52;7.78;;;;;;;7.38;73.20;99516.47;4915789;29;20121;-93
2023/04/23 05:18:51;;;;;;;15.73;8.95;;;;;;;7.48;73.20;99521.97;4930561;29;20035;-93
2023/04/23 05:21:18;;;;;;;12.52;7.95;;;;;;;7.64;72.77;99515.81;4930291;29;20152;-93
2023/04/23 05:23:43;;;;;;;14.00;7.43;;;;;;;7.87;72.64;99514.78;4930763;29;20493;-93
2023/04/23 05:26:10;;;;;;;14.57;7.47;;;;;;;7.90;71.61;99516.16;4915016;29;20039;-93
2023/04/23 05:28:35;;;;;;;11.13;6.63;;;;;;;8.04;71.27;99513.94;4915898;29;20067;-93
2023/04/23 05:31:01;;;;;;;15.45;7.05;;;;;;;8.33;71.46;99522.63;4929680;29;20043;-94
2023/04/23 05:33:27;;;;;;;11.60;6.40;;;;;;;8.42;70.76;99518.44;4913593;29;20386;-94
2023/04/23 05:35:53;;;;;;;11.02;6.53;;;;;;;8.45;71.04;99514.47;4914146;29;20042;-93
2023/04/23 05:38:19;;;;;;;9.95;5.70;;;;;;;8.63;69.62;99532.94;4929214;29;20059;-92
2023/04/23 05:40:44;;;;;;;12.80;5.72;;;;;;;8.68;70.01;99516.88;4913535;29;20035;-94
2023/04/23 05:43:10;;;;;;;10.82;5.43;;;;;;;8.87;69.28;99514.66;4935826;29;20039;-92
2023/04/23 05:45:35;;;;;;;11.90;5.38;;;;;;;8.87;69.13;99524.59;4920398;29;20039;-92
2023/04/23 05:48:01;;;;;;;9.60;4.85;;;;;;;8.78;68.85;99518.88;4931243;29;20035;-94
2023/04/23 05:50:26;;;;;;;5.78;4.50;;;;;;;8.88;69.30;99531.56;4913938;29;20074;-92
2023/04/23 05:52:52;;;;;;;11.82;5.07;;;;;;;9.00;68.96;99526.84;4914391;29;20042;-93
2023/04/23 05:55:19;;;;;;;6.85;4.45;;;;;;;9.12;68.64;99534.75;4929705;29;20043;-93
2023/04/23 05:57:45;;;;;;;15.40;4.60;;;;;;;9.18;68.60;99522.19;4913366;29;20129;-92
2023/04/23 06:00:10;;;;;;;6.78;4.80;;;;;;;9.14;68.94;99524.56;4912447;29;20046;-93
2023/04/23 06:02:37;;;;;;;8.40;5.05;;;;;;;9.13;69.27;99532.88;4912502;29;20050;-92
2023/04/23 06:05:03;;;;;;;8.63;5.50;;;;;;;9.20;69.07;99530.81;4911560;29;20050;-93
2023/04/23 06:07:30;;;;;;;10.43;5.05;;;;;;;9.23;68.99;99541.03;4912543;29;20137;-92
2023/04/23 06:09:55;;;;;;;10.38;6.13;;;;;;;9.27;69.24;99536.75;4912030;29;20141;-92
2023/04/23 06:12:20;;;;;;;10.23;5.18;;;;;;;9.20;69.39;99518.19;4928048;29;20059;-92
2023/04/23 06:14:46;;;;;;;8.43;5.38;;;;;;;9.37;68.48;99526.09;4911208;29;20063;-92
2023/04/23 06:17:12;;;;;;;9.90;6.15;;;;;;;9.61;67.64;99526.56;4928508;29;20043;-92
2023/04/23 06:19:37;;;;;;;9.55;5.38;;;;;;;9.83;67.25;99533.69;4928393;29;20126;-93
2023/04/23 06:22:03;;;;;;;9.40;5.65;;;;;;;9.86;67.01;99525.91;4929075;29;20039;-92
2023/04/23 06:24:29;;;;;;;9.35;5.70;;;;;;;10.06;67.46;99532.47;4929477;29;20042;-94
2023/04/23 06:26:55;;;;;;;7.65;5.03;;;;;;;10.11;66.55;99535.19;4929116;29;20130;-94
2023/04/23 06:29:20;;;;;;;10.70;6.35;;;;;;;10.18;66.67;99530.38;4913825;29;20103;-94
2023/04/23 06:31:46;;;;;;;13.05;5.95;;;;;;;10.35;65.86;99529.41;4928546;29;20050;-93
2023/04/23 06:34:11;;;;;;;8.52;5.47;;;;;;;10.37;65.25;99516.50;4914130;29;20050;-93
2023/04/23 06:36:37;;;;;;;6.68;4.90;;;;;;;10.57;64.94;99516.56;4929923;29;20050;-94
2023/04/23 06:39:02;;;;;;;21.48;5.38;;;;;;;10.66;64.34;99522.25;4913004;29;20019;-94
2023/04/23 06:41:27;;;;;;;11.73;5.35;;;;;;;10.77;64.57;99521.22;4912298;29;20516;-94
2023/04/23 06:43:53;;;;;;;9.52;5.32;;;;;;;10.92;64.01;99512.34;4912216;29;20063;-95
2023/04/23 06:46:18;;;;;;;8.43;4.97;;;;;;;10.92;64.07;99510.47;4929124;29;20035;-95
2023/04/23 06:48:45;;;;;;;11.02;5.50;;;;;;;11.15;63.08;99505.63;4928925;29;20058;-93
2023/04/23 06:51:10;;;;;;;7.43;5.07;;;;;;;11.28;63.20;99501.59;4928171;29;20100;-94
2023/04/23 06:53:36;;;;;;;7.25;4.70;;;;;;;11.40;62.18;99502.13;4912189;29;20106;-93
2023/04/23 06:56:01;;;;;;;7.70;5.50;;;;;;;11.73;61.63;99508.03;4928835;29;20031;-94
2023/04/23 06:58:30;;;;;;;9.95;5.55;;;;;;;11.96;61.32;99503.16;4928876;29;20031;-95
2023/04/23 07:01:00;;;;;;;13.15;5.53;;;;;;;12.12;60.79;99508.22;4928599;29;20043;-94
2023/04/23 07:03:29;;;;;;;8.85;4.60;;;;;;;12.25;59.93;99500.63;4913844;29;20035;-94
2023/04/23 07:05:55;;;;;;;7.68;4.25;;;;;;;12.31;59.73;99494.13;4913117;29;20038;-93
2023/04/23 07:08:21;;;;;;;8.90;4.57;;;;;;;12.52;59.24;99494.81;4911983;29;20035;-94
2023/04/23 07:10:47;;;;;;;7.20;4.03;;;;;;;12.77;57.79;99501.19;4928532;29;20058;-92
2023/04/23 07:13:12;;;;;;;11.35;4.63;;;;;;;12.83;56.54;99500.84;4928638;29;20031;-93
2023/04/23 07:15:38;;;;;;;5.70;3.35;;;;;;;13.04;55.94;99503.44;4928296;29;20066;-92
2023/04/23 07:18:05;;;;;;;5.72;3.42;;;;;;;13.18;55.46;99485.47;4927577;29;20039;-94
2023/04/23 07:20:32;;;;;;;6.53;3.63;;;;;;;13.37;54.70;99487.53;4913081;29;20056;-93
2023/04/23 07:22:57;;;;;;;5.25;3.63;;;;;;;13.64;53.67;99504.03;4911427;29;20042;-95
2023/04/23 07:25:24;;;;;;;6.53;3.55;;;;;;;13.75;52.37;99502.81;4912300;29;20046;-94
2023/04/23 07:27:50;;;;;;;6.25;3.92;;;;;;;13.87;53.12;99497.03;4928558;29;20133;-95
2023/04/23 07:30:16;;;;;;;5.30;3.67;;;;;;;14.02;51.77;99506.09;4928430;29;20035;-95
2023/04/23 07:32:42;;;;;;;5.28;3.60;;;;;;;14.19;51.68;99509.13;4926990;29;20043;-94
2023/04/23 07:35:09;;;;;;;7.55;3.33;;;;;;;14.32;50.14;99502.22;4927208;29;20045;-95
2023/04/23 07:37:35;;;;;;;3.47;2.55;;;;;;;14.35;48.44;99496.22;4912043;29;20080;-94
2023/04/23 07:40:01;;;;;;;6.13;3.22;;;;;;;14.53;48.49;99491.91;4912414;29;20043;-93
2023/04/23 07:42:27;;;;;;;8.25;3.20;;;;;;;14.58;48.55;99486.44;4928044;29;20038;-94
2023/04/23 07:44:52;;;;;;;6.47;2.72;;;;;;;14.74;47.59;99492.47;4912389;29;20039;-93
2023/04/23 07:47:18;;;;;;;4.95;3.05;;;;;;;14.89;46.87;99497.66;4927172;29;20016;-94
2023/04/23 07:49:43;;;;;;;6.82;2.80;;;;;;;14.99;46.24;99491.28;4929223;29;20043;-94
2023/04/23 07:52:09;;;;;;;5.70;2.88;;;;;;;15.04;45.68;99484.97;4912445;29;20034;-94
2023/04/23 07:54:34;;;;;;;6.45;2.55;;;;;;;15.12;44.35;99479.69;4913806;29;20050;-93
2023/04/23 07:57:00;;;;;;;6.85;2.88;;;;;;;15.26;44.25;99482.44;4911781;29;20039;-94
2023/04/23 07:59:25;;;;;;;12.23;3.20;;;;;;;15.42;43.96;99485.72;4912780;29;20102;-94
2023/04/23 08:01:51;;;;;;;2.90;2.13;;;;;;;15.42;43.72;99474.84;4911275;29;20050;-93
2023/04/23 08:04:16;;;;;;;3.88;2.17;;;;;;;15.51;43.47;99455.97;4911244;29;20035;-93
2023/04/23 08:06:42;;;;;;;5.60;2.10;;;;;;;15.72;43.19;99470.81;4910820;29;20046;-94
2023/04/23 08:09:08;;;;;;;6.30;2.47;;;;;;;15.82;42.27;99463.59;4930114;29;20047;-93
2023/04/23 08:11:33;;;;;;;3.28;2.30;;;;;;;15.92;42.42;99472.34;4914526;29;20023;-95
2023/04/23 08:14:00;;;;;;;11.55;2.88;;;;;;;15.93;42.55;99456.84;4929731;28;20035;-93
2023/04/23 08:16:26;;;;;;;6.32;2.33;;;;;;;16.20;41.50;99474.22;4914541;29;20133;-94
2023/04/23 08:18:51;;;;;;;5.28;2.53;;;;;;;16.19;40.79;99476.16;4915015;28;20035;-93
2023/04/23 08:21:17;;;;;;;8.98;3.60;;;;;;;16.34;39.92;99481.25;4913722;29;20043;-93
2023/04/23 08:23:42;;;;;;;4.70;2.45;;;;;;;16.39;38.80;99457.81;4914245;29;20086;-93
2023/04/23 08:26:09;;;;;;;5.22;2.25;;;;;;;16.28;39.25;99441.72;4915942;29;20031;-93
2023/04/23 08:28:34;;;;;;;3.45;2.22;;;;;;;16.48;38.85;99439.69;4929787;29;20098;-93
2023/04/23 08:31:00;;;;;;;4.97;2.25;;;;;;;16.82;37.50;99463.66;4913980;29;20066;-93
2023/04/23 08:33:26;;;;;;;3.60;2.28;;;;;;;16.86;38.32;99448.34;4913925;29;20464;-92
2023/04/23 08:35:51;;;;;;;7.68;2.65;;;;;;;17.02;37.01;99456.94;4913187;29;20039;-93
2023/04/23 08:38:17;;;;;;;6.05;2.40;;;;;;;17.02;37.21;99461.59;4915443;29;20016;-92
2023/04/23 08:40:44;;;;;;;4.75;2.05;;;;;;;16.96;34.90;99453.53;4913657;29;20039;-92
2023/04/23 08:43:19;;;;;;;4.75;2.08;;;;;;;17.05;35.32;99450.88;4918288;29;20098;-93
2023/04/23 08:45:48;;;;;;;4.18;1.85;;;;;;;17.15;34.13;99447.09;4914266;29;20031;-91
2023/04/23 08:48:13;;;;;;;5.32;2.10;;;;;;;17.21;33.95;99445.84;4914053;29;20018;-93
2023/04/23 08:50:41;;;;;;;7.28;2.65;;;;;;;17.27;34.92;99441.91;4929738;29;20031;-92
2023/04/23 08:53:07;;;;;;;5.55;2.28;;;;;;;17.33;33.75;99443.38;4913826;29;20062;-92
2023/04/23 08:55:33;;;;;;;6.28;2.65;;;;;;;17.30;32.64;99430.38;4912251;29;20482;-92
2023/04/23 08:57:59;;;;;;;4.47;2.10;;;;;;;17.24;34.67;99431.63;4913896;29;20031;-92
2023/04/23 09:00:25;;;;;;;7.28;2.00;;;;;;;17.46;33.72;99432.72;4929653;29;20042;-92
2023/04/23 09:02:50;;;;;;;10.35;3.10;;;;;;;17.48;33.96;99434.00;4929162;29;20493;-92
2023/04/23 09:05:16;;;;;;;3.42;1.90;;;;;;;17.56;33.93;99433.25;4913288;29;20031;-92
2023/04/23 09:07:42;;;;;;;6.43;2.72;;;;;;;17.51;34.20;99425.19;4913897;29;20035;-92
2023/04/23 09:10:09;;;;;;;4.65;1.90;;;;;;;17.56;33.61;99424.28;4912741;29;20025;-92
2023/04/23 09:12:34;;;;;;;3.30;2.20;;;;;;;17.38;34.47;99418.72;4913623;29;20027;-92
2023/04/23 09:15:00;;;;;;;3.20;2.30;;;;;;;17.45;35.38;99420.19;4912482;29;20059;-93
2023/04/23 09:17:27;;;;;;;3.30;2.00;;;;;;;17.37;33.69;99413.63;4914090;28;20070;-91
2023/04/23 09:19:53;;;;;;;4.97;2.03;;;;;;;17.50;34.08;99415.44;4913256;29;20387;-91
2023/04/23 09:22:39;;;;;;;6.28;2.20;;;;;;;17.71;35.37;99412.16;4913441;29;20038;-92
2023/04/23 09:25:06;;;;;;;9.15;2.10;;;;;;;17.66;34.04;99415.84;4928796;29;20047;-92
2023/04/23 09:27:32;;;;;;;3.67;1.88;;;;;;;17.56;34.24;99403.28;4912276;29;20050;-92
2023/04/23 09:30:03;;;;;;;5.65;1.83;;;;;;;17.63;32.94;99421.09;4927796;29;20043;-92
2023/04/23 09:32:40;;;;;;;3.35;1.88;;;;;;;17.65;32.69;99410.69;4912210;29;20035;-92
2023/04/23 09:35:07;;;;;;;2.92;1.70;;;;;;;17.58;31.68;99403.78;4910044;29;20050;-94
2023/04/23 09:37:33;;;;;;;5.10;1.70;;;;;;;17.60;31.54;99402.66;4928146;29;20035;-92
2023/04/23 09:39:59;;;;;;;4.57;2.10;;;;;;;17.81;31.52;99409.16;4927651;29;20085;-93
2023/04/23 09:42:28;;;;;;;4.75;1.95;;;;;;;17.72;30.53;99394.69;4928030;29;20070;-92
2023/04/23 09:44:58;;;;;;;3.30;2.10;;;;;;;17.70;31.67;99396.91;4928186;29;20584;-92
2023/04/23 09:47:24;;;;;;;4.25;2.20;;;;;;;17.49;32.15;99391.25;4928883;29;20020;-92
2023/04/23 09:49:53;;;;;;;4.88;2.30;;;;;;;17.56;32.80;99386.94;4928738;29;20039;-92
2023/04/23 09:52:18;;;;;;;5.53;2.35;;;;;;;17.72;32.48;99390.06;4928664;29;20035;-92
2023/04/23 09:54:47;;;;;;;3.72;2.13;;;;;;;17.68;32.77;99375.47;4928774;29;20035;-93
2023/04/23 09:57:13;;;;;;;4.00;2.08;;;;;;;17.69;32.17;99370.81;4929456;29;20039;-92
2023/04/23 09:59:38;;;;;;;4.57;2.03;;;;;;;17.73;32.25;99385.41;4928024;29;20035;-92
2023/04/23 10:02:05;;;;;;;4.72;2.60;;;;;;;17.51;32.85;99383.56;4929139;29;20039;-93
2023/04/23 10:04:31;;;;;;;4.63;2.10;;;;;;;17.42;32.88;99374.56;4929195;29;20042;-93
2023/04/23 10:06:57;;;;;;;3.88;1.80;;;;;;;17.43;31.93;99379.72;4929074;29;20035;-93
2023/04/23 10:09:27;;;;;;;4.47;1.83;;;;;;;17.52;32.42;99387.91;4926520;29;20502;-93
2023/04/23 10:11:57;;;;;;;3.05;1.73;;;;;;;17.54;32.33;99391.13;4945713;29;20481;-94
2023/04/23 10:14:23;;;;;;;2.00;1.60;;;;;;;17.38;32.12;99375.19;4928094;29;20421;-93
2023/04/23 10:17:02;;;;;;;3.17;1.98;;;;;;;17.43;32.54;99370.72;4927977;29;20106;-93
2023/04/23 10:19:28;;;;;;;5.07;1.98;;;;;;;17.58;32.51;99381.19;4914606;29;20035;-92
2023/04/23 10:21:56;;;;;;;4.13;2.00;;;;;;;17.61;32.77;99371.59;4919268;29;20051;-92
2023/04/23 10:24:27;;;;;;;6.95;1.92;;;;;;;17.72;33.03;99372.91;4912508;29;20039;-93
2023/04/23 10:26:55;;;;;;;4.65;2.42;;;;;;;17.86;32.45;99365.44;4914231;29;20051;-92
2023/04/23 10:29:22;;;;;;;4.93;2.00;;;;;;;17.81;32.38;99356.59;4927943;28;20042;-91
2023/04/23 10:31:48;;;;;;;4.60;2.17;;;;;;;17.96;33.10;99354.25;4913394;29;20137;-92
2023/04/23 10:34:13;;;;;;;5.05;2.15;;;;;;;17.98;32.14;99351.22;4910584;29;20486;-92
2023/04/23 10:36:39;;;;;;;5.72;2.00;;;;;;;18.04;31.66;99351.88;4912116;29;20035;-92
2023/04/23 10:39:07;;;;;;;4.53;1.90;;;;;;;17.97;32.34;99355.03;4912884;29;20023;-93
2023/04/23 10:41:37;;;;;;;5.40;2.17;;;;;;;17.87;32.72;99342.53;4928101;29;20043;-92
2023/04/23 10:44:06;;;;;;;5.00;2.28;;;;;;;18.05;32.15;99337.91;4912298;29;20066;-93
2023/04/23 10:46:32;;;;;;;4.30;2.15;;;;;;;18.15;32.62;99337.59;4911762;29;20550;-93
2023/04/23 10:49:20;;;;;;;3.80;2.20;;;;;;;18.22;32.49;99344.50;4912214;29;20035;-93
2023/04/23 10:51:46;;;;;;;4.65;2.50;;;;;;;18.09;32.76;99332.63;4928390;29;20049;-93
2023/04/23 10:54:15;;;;;;;8.98;1.92;;;;;;;18.09;32.44;99341.59;4928410;29;20031;-93
2023/04/23 10:56:40;;;;;;;3.58;2.05;;;;;;;18.13;32.35;99341.75;4927195;29;20118;-93
2023/04/23 10:59:28;;;;;;;4.25;1.90;;;;;;;18.23;32.15;99341.44;4911417;29;20058;-92
2023/04/23 11:01:55;;;;;;;3.58;2.00;;;;;;;18.17;32.25;99318.19;4926461;29;20039;-93
2023/04/23 11:04:27;;;;;;;2.70;1.90;;;;;;;18.35;32.13;99311.63;4912429;29;20035;-93
2023/04/23 11:06:57;;;;;;;3.65;2.00;;;;;;;18.31;31.98;99296.25;4912283;29;20043;-92
2023/04/23 11:09:44;;;;;;;3.58;2.13;;;;;;;18.36;30.78;99298.78;4912146;29;20046;-92
2023/04/23 11:12:30;;;;;;;5.53;2.13;;;;;;;18.48;31.77;99309.84;4927548;29;20430;-92
2023/04/23 11:14:58;;;;;;;2.70;2.10;;;;;;;18.56;31.54;99311.75;4911514;29;20063;-93
2023/04/23 11:17:46;;;;;;;5.68;1.90;;;;;;;18.54;31.37;99322.19;4912921;29;20046;-94
2023/04/23 11:20:14;;;;;;;7.13;2.00;;;;;;;18.62;31.83;99315.13;4927930;29;20039;-93
2023/04/23 11:22:43;;;;;;;4.85;2.35;;;;;;;18.64;31.84;99312.09;4942942;29;20517;-93
2023/04/23 11:25:11;;;;;;;4.20;1.90;;;;;;;18.72;31.66;99316.72;4926985;29;20046;-93
2023/04/23 11:27:43;;;;;;;4.55;1.80;;;;;;;18.64;31.69;99293.00;4942761;29;20066;-93
2023/04/23 11:30:13;;;;;;;4.80;2.45;;;;;;;18.86;31.52;99294.72;4911463;29;20039;-93
2023/04/23 11:32:40;;;;;;;6.57;2.25;;;;;;;18.93;30.92;99301.28;4911389;29;20059;-93